sensor_id;sensor_type;location;lat;lon;timestamp;temperature;humidity
49238;DHT22;35069;47.906;1.892;2024-02-23T00:01:05;6.00;99.90
49238;DHT22;35069;47.906;1.892;2024-02-23T00:03:31;6.00;99.90
49238;DHT22;35069;47.906;1.892;2024-02-23T00:05:58;6.00;99.90
49238;DHT22;35069;47.906;1.892;2024-02-23T00:08:24;6.00;99.90
49238;DHT22;35069;47.906;1.892;2024-02-23T00:10:49;6.00;99.90
49238;DHT22;35069;47.906;1.892;2024-02-23T00:13:15;6.00;99.90
49238;DHT22;35069;47.906;1.892;2024-02-23T00:15:41;6.00;99.90
49238;DHT22;35069;47.906;1.892;2024-02-23T00:18:06;6.10;99.90
49238;DHT22;35069;47.906;1.892;2024-02-23T00:20:33;6.10;99.90
49238;DHT22;35069;47.906;1.892;2024-02-23T00:22:59;6.10;99.90
49238;DHT22;35069;47.906;1.892;2024-02-23T00:25:24;6.10;99.90
49238;DHT22;35069;47.906;1.892;2024-02-23T00:27:50;6.20;99.90
49238;DHT22;35069;47.906;1.892;2024-02-23T00:30:16;6.20;99.90
49238;DHT22;35069;47.906;1.892;2024-02-23T00:32:41;6.20;99.90
49238;DHT22;35069;47.906;1.892;2024-02-23T00:35:07;6.20;99.90
49238;DHT22;35069;47.906;1.892;2024-02-23T00:37:32;6.20;99.90
49238;DHT22;35069;47.906;1.892;2024-02-23T00:40:02;6.20;99.90
49238;DHT22;35069;47.906;1.892;2024-02-23T00:42:29;6.10;99.90
49238;DHT22;35069;47.906;1.892;2024-02-23T00:44:55;6.10;99.90
49238;DHT22;35069;47.906;1.892;2024-02-23T00:47:21;6.10;99.90
49238;DHT22;35069;47.906;1.892;2024-02-23T00:49:46;6.10;99.90
49238;DHT22;35069;47.906;1.892;2024-02-23T00:52:12;6.10;99.90
49238;DHT22;35069;47.906;1.892;2024-02-23T00:54:37;6.10;99.90
49238;DHT22;35069;47.906;1.892;2024-02-23T00:57:03;6.10;99.90
49238;DHT22;35069;47.906;1.892;2024-02-23T00:59:28;6.10;99.90
49238;DHT22;35069;47.906;1.892;2024-02-23T01:01:55;6.10;99.90
49238;DHT22;35069;47.906;1.892;2024-02-23T01:04:23;6.00;99.90
49238;DHT22;35069;47.906;1.892;2024-02-23T01:06:49;6.10;99.90
49238;DHT22;35069;47.906;1.892;2024-02-23T01:09:15;6.00;99.90
49238;DHT22;35069;47.906;1.892;2024-02-23T01:11:52;6.00;99.90
49238;DHT22;35069;47.906;1.892;2024-02-23T01:14:22;6.00;99.90
49238;DHT22;35069;47.906;1.892;2024-02-23T01:16:48;6.00;99.90
49238;DHT22;35069;47.906;1.892;2024-02-23T01:19:14;6.00;99.90
49238;DHT22;35069;47.906;1.892;2024-02-23T01:21:41;5.90;99.90
49238;DHT22;35069;47.906;1.892;2024-02-23T01:24:07;6.00;99.90
49238;DHT22;35069;47.906;1.892;2024-02-23T01:26:33;5.90;99.90
49238;DHT22;35069;47.906;1.892;2024-02-23T01:28:58;5.90;99.90
49238;DHT22;35069;47.906;1.892;2024-02-23T01:31:24;5.90;99.90
49238;DHT22;35069;47.906;1.892;2024-02-23T01:33:50;5.90;99.90
49238;DHT22;35069;47.906;1.892;2024-02-23T01:36:16;6.00;99.90
49238;DHT22;35069;47.906;1.892;2024-02-23T01:38:43;6.00;99.90
49238;DHT22;35069;47.906;1.892;2024-02-23T01:41:09;6.10;99.90
49238;DHT22;35069;47.906;1.892;2024-02-23T01:43:36;6.10;99.90
49238;DHT22;35069;47.906;1.892;2024-02-23T01:46:02;6.10;99.90
49238;DHT22;35069;47.906;1.892;2024-02-23T01:48:29;6.10;99.90
49238;DHT22;35069;47.906;1.892;2024-02-23T01:50:54;6.10;99.90
49238;DHT22;35069;47.906;1.892;2024-02-23T01:53:21;6.00;99.90
49238;DHT22;35069;47.906;1.892;2024-02-23T01:55:48;6.00;99.90
49238;DHT22;35069;47.906;1.892;2024-02-23T01:58:15;6.00;99.90
49238;DHT22;35069;47.906;1.892;2024-02-23T02:00:40;6.00;99.90
49238;DHT22;35069;47.906;1.892;2024-02-23T02:03:06;5.90;99.90
49238;DHT22;35069;47.906;1.892;2024-02-23T02:05:31;5.90;99.90
49238;DHT22;35069;47.906;1.892;2024-02-23T02:07:57;5.90;99.90
49238;DHT22;35069;47.906;1.892;2024-02-23T02:10:26;5.80;99.90
49238;DHT22;35069;47.906;1.892;2024-02-23T02:12:52;5.80;99.90
49238;DHT22;35069;47.906;1.892;2024-02-23T02:15:18;5.80;99.90
49238;DHT22;35069;47.906;1.892;2024-02-23T02:17:45;5.80;99.90
49238;DHT22;35069;47.906;1.892;2024-02-23T02:20:14;5.70;99.90
49238;DHT22;35069;47.906;1.892;2024-02-23T02:22:40;5.70;99.90
49238;DHT22;35069;47.906;1.892;2024-02-23T02:25:06;5.70;99.90
49238;DHT22;35069;47.906;1.892;2024-02-23T02:27:32;5.70;99.90
49238;DHT22;35069;47.906;1.892;2024-02-23T02:29:58;5.70;99.90
49238;DHT22;35069;47.906;1.892;2024-02-23T02:32:23;5.70;99.90
49238;DHT22;35069;47.906;1.892;2024-02-23T02:34:49;5.60;99.90
49238;DHT22;35069;47.906;1.892;2024-02-23T02:37:15;5.60;99.90
49238;DHT22;35069;47.906;1.892;2024-02-23T02:39:41;5.60;99.90
49238;DHT22;35069;47.906;1.892;2024-02-23T02:42:07;5.60;99.90
49238;DHT22;35069;47.906;1.892;2024-02-23T02:44:32;5.60;99.90
49238;DHT22;35069;47.906;1.892;2024-02-23T02:46:58;5.50;99.90
49238;DHT22;35069;47.906;1.892;2024-02-23T02:49:23;5.50;99.90
49238;DHT22;35069;47.906;1.892;2024-02-23T02:51:49;5.50;99.90
49238;DHT22;35069;47.906;1.892;2024-02-23T02:54:15;5.60;99.90
49238;DHT22;35069;47.906;1.892;2024-02-23T02:56:45;5.60;99.90
49238;DHT22;35069;47.906;1.892;2024-02-23T02:59:12;5.60;99.90
49238;DHT22;35069;47.906;1.892;2024-02-23T03:01:37;5.60;99.90
49238;DHT22;35069;47.906;1.892;2024-02-23T03:04:03;5.60;99.90
49238;DHT22;35069;47.906;1.892;2024-02-23T03:06:29;5.60;99.90
49238;DHT22;35069;47.906;1.892;2024-02-23T03:08:54;5.60;99.90
49238;DHT22;35069;47.906;1.892;2024-02-23T03:11:20;5.60;99.90
49238;DHT22;35069;47.906;1.892;2024-02-23T03:13:46;5.60;99.90
49238;DHT22;35069;47.906;1.892;2024-02-23T03:16:16;5.50;99.90
49238;DHT22;35069;47.906;1.892;2024-02-23T03:18:41;5.60;99.90
49238;DHT22;35069;47.906;1.892;2024-02-23T03:21:07;5.50;99.90
49238;DHT22;35069;47.906;1.892;2024-02-23T03:23:35;5.50;99.90
49238;DHT22;35069;47.906;1.892;2024-02-23T03:26:04;5.50;99.90
49238;DHT22;35069;47.906;1.892;2024-02-23T03:28:30;5.50;99.90
49238;DHT22;35069;47.906;1.892;2024-02-23T03:31:00;5.50;99.90
49238;DHT22;35069;47.906;1.892;2024-02-23T03:33:25;5.50;99.90
49238;DHT22;35069;47.906;1.892;2024-02-23T03:35:51;5.40;99.90
49238;DHT22;35069;47.906;1.892;2024-02-23T03:38:16;5.40;99.90
49238;DHT22;35069;47.906;1.892;2024-02-23T03:40:42;5.40;99.90
49238;DHT22;35069;47.906;1.892;2024-02-23T03:43:08;5.40;99.90
49238;DHT22;35069;47.906;1.892;2024-02-23T03:45:33;5.40;99.90
49238;DHT22;35069;47.906;1.892;2024-02-23T03:47:59;5.40;99.90
49238;DHT22;35069;47.906;1.892;2024-02-23T03:50:25;5.40;99.90
49238;DHT22;35069;47.906;1.892;2024-02-23T03:52:50;5.40;99.90
49238;DHT22;35069;47.906;1.892;2024-02-23T03:55:16;5.40;99.90
49238;DHT22;35069;47.906;1.892;2024-02-23T03:57:42;5.30;99.90
49238;DHT22;35069;47.906;1.892;2024-02-23T04:00:08;5.30;99.90
49238;DHT22;35069;47.906;1.892;2024-02-23T04:02:34;5.30;99.90
49238;DHT22;35069;47.906;1.892;2024-02-23T04:05:00;5.30;99.90
49238;DHT22;35069;47.906;1.892;2024-02-23T04:07:25;5.30;99.90
49238;DHT22;35069;47.906;1.892;2024-02-23T04:09:51;5.30;99.90
49238;DHT22;35069;47.906;1.892;2024-02-23T04:12:21;5.20;99.90
49238;DHT22;35069;47.906;1.892;2024-02-23T04:14:46;5.30;99.90
49238;DHT22;35069;47.906;1.892;2024-02-23T04:17:12;5.20;99.90
49238;DHT22;35069;47.906;1.892;2024-02-23T04:19:38;5.20;99.90
49238;DHT22;35069;47.906;1.892;2024-02-23T04:22:05;5.20;99.90
49238;DHT22;35069;47.906;1.892;2024-02-23T04:24:31;5.20;99.90
49238;DHT22;35069;47.906;1.892;2024-02-23T04:26:56;5.20;99.90
49238;DHT22;35069;47.906;1.892;2024-02-23T04:29:22;5.20;99.90
49238;DHT22;35069;47.906;1.892;2024-02-23T04:31:47;5.20;99.90
49238;DHT22;35069;47.906;1.892;2024-02-23T04:34:15;5.20;99.90
49238;DHT22;35069;47.906;1.892;2024-02-23T04:36:41;5.20;99.90
49238;DHT22;35069;47.906;1.892;2024-02-23T04:39:07;5.10;99.90
49238;DHT22;35069;47.906;1.892;2024-02-23T04:41:33;5.20;99.90
49238;DHT22;35069;47.906;1.892;2024-02-23T04:43:58;5.20;99.90
49238;DHT22;35069;47.906;1.892;2024-02-23T04:46:26;5.20;99.90
49238;DHT22;35069;47.906;1.892;2024-02-23T04:48:52;5.30;99.90
49238;DHT22;35069;47.906;1.892;2024-02-23T04:51:17;5.30;99.90
49238;DHT22;35069;47.906;1.892;2024-02-23T04:53:44;5.40;99.90
49238;DHT22;35069;47.906;1.892;2024-02-23T04:56:09;5.40;99.90
49238;DHT22;35069;47.906;1.892;2024-02-23T04:58:35;5.40;99.90
49238;DHT22;35069;47.906;1.892;2024-02-23T05:01:01;5.50;99.90
49238;DHT22;35069;47.906;1.892;2024-02-23T05:03:28;5.50;99.90
49238;DHT22;35069;47.906;1.892;2024-02-23T05:05:54;5.50;99.90
49238;DHT22;35069;47.906;1.892;2024-02-23T05:08:20;5.50;99.90
49238;DHT22;35069;47.906;1.892;2024-02-23T05:10:49;5.50;99.90
49238;DHT22;35069;47.906;1.892;2024-02-23T05:13:15;5.40;99.90
49238;DHT22;35069;47.906;1.892;2024-02-23T05:15:40;5.40;99.90
49238;DHT22;35069;47.906;1.892;2024-02-23T05:18:06;5.40;99.90
49238;DHT22;35069;47.906;1.892;2024-02-23T05:20:32;5.30;99.90
49238;DHT22;35069;47.906;1.892;2024-02-23T05:22:57;5.30;99.90
49238;DHT22;35069;47.906;1.892;2024-02-23T05:25:23;5.30;99.90
49238;DHT22;35069;47.906;1.892;2024-02-23T05:27:48;5.30;99.90
49238;DHT22;35069;47.906;1.892;2024-02-23T05:30:14;5.30;99.90
49238;DHT22;35069;47.906;1.892;2024-02-23T05:32:40;5.20;99.90
49238;DHT22;35069;47.906;1.892;2024-02-23T05:35:06;5.30;99.90
49238;DHT22;35069;47.906;1.892;2024-02-23T05:37:31;5.30;99.90
49238;DHT22;35069;47.906;1.892;2024-02-23T05:39:57;5.30;99.90
49238;DHT22;35069;47.906;1.892;2024-02-23T05:42:25;5.30;99.90
49238;DHT22;35069;47.906;1.892;2024-02-23T05:44:51;5.30;99.90
49238;DHT22;35069;47.906;1.892;2024-02-23T05:47:16;5.20;99.90
49238;DHT22;35069;47.906;1.892;2024-02-23T05:49:43;5.20;99.90
49238;DHT22;35069;47.906;1.892;2024-02-23T05:52:09;5.20;99.90
49238;DHT22;35069;47.906;1.892;2024-02-23T05:54:35;5.20;99.90
49238;DHT22;35069;47.906;1.892;2024-02-23T05:57:00;5.20;99.90
49238;DHT22;35069;47.906;1.892;2024-02-23T05:59:26;5.20;99.90
49238;DHT22;35069;47.906;1.892;2024-02-23T06:01:52;5.20;99.90
49238;DHT22;35069;47.906;1.892;2024-02-23T06:04:24;5.20;99.90
49238;DHT22;35069;47.906;1.892;2024-02-23T06:06:52;5.10;99.90
49238;DHT22;35069;47.906;1.892;2024-02-23T06:09:18;5.10;99.90
49238;DHT22;35069;47.906;1.892;2024-02-23T06:14:51;5.20;99.90
49238;DHT22;35069;47.906;1.892;2024-02-23T06:17:16;5.20;99.90
49238;DHT22;35069;47.906;1.892;2024-02-23T06:19:42;5.20;99.90
49238;DHT22;35069;47.906;1.892;2024-02-23T06:22:08;5.20;99.90
49238;DHT22;35069;47.906;1.892;2024-02-23T06:24:35;5.20;99.90
49238;DHT22;35069;47.906;1.892;2024-02-23T06:27:01;5.10;99.90
49238;DHT22;35069;47.906;1.892;2024-02-23T06:29:33;5.10;99.90
49238;DHT22;35069;47.906;1.892;2024-02-23T06:31:59;5.10;99.90
49238;DHT22;35069;47.906;1.892;2024-02-23T06:34:26;5.10;99.90
49238;DHT22;35069;47.906;1.892;2024-02-23T06:36:52;5.00;99.90
49238;DHT22;35069;47.906;1.892;2024-02-23T06:39:18;5.00;99.90
49238;DHT22;35069;47.906;1.892;2024-02-23T06:41:45;5.00;99.90
49238;DHT22;35069;47.906;1.892;2024-02-23T06:44:14;5.10;99.90
49238;DHT22;35069;47.906;1.892;2024-02-23T06:46:44;5.10;99.90
49238;DHT22;35069;47.906;1.892;2024-02-23T06:49:16;5.10;99.90
49238;DHT22;35069;47.906;1.892;2024-02-23T06:51:41;5.10;99.90
49238;DHT22;35069;47.906;1.892;2024-02-23T06:54:20;5.10;99.90
49238;DHT22;35069;47.906;1.892;2024-02-23T06:56:48;5.20;99.90
49238;DHT22;35069;47.906;1.892;2024-02-23T06:59:14;5.20;99.90
49238;DHT22;35069;47.906;1.892;2024-02-23T07:01:51;5.30;99.90
49238;DHT22;35069;47.906;1.892;2024-02-23T07:04:18;5.30;99.90
49238;DHT22;35069;47.906;1.892;2024-02-23T07:06:44;5.40;99.90
49238;DHT22;35069;47.906;1.892;2024-02-23T07:09:10;5.40;99.90
49238;DHT22;35069;47.906;1.892;2024-02-23T07:11:39;5.40;99.90
49238;DHT22;35069;47.906;1.892;2024-02-23T07:14:06;5.50;99.90
49238;DHT22;35069;47.906;1.892;2024-02-23T07:16:37;5.60;99.90
49238;DHT22;35069;47.906;1.892;2024-02-23T07:19:04;5.60;99.90
49238;DHT22;35069;47.906;1.892;2024-02-23T07:21:29;5.60;99.90
49238;DHT22;35069;47.906;1.892;2024-02-23T07:23:55;5.70;99.90
49238;DHT22;35069;47.906;1.892;2024-02-23T07:26:20;5.70;99.90
49238;DHT22;35069;47.906;1.892;2024-02-23T07:28:47;5.80;99.90
49238;DHT22;35069;47.906;1.892;2024-02-23T07:31:14;5.80;99.90
49238;DHT22;35069;47.906;1.892;2024-02-23T07:33:40;6.00;99.90
49238;DHT22;35069;47.906;1.892;2024-02-23T07:36:06;6.20;99.90
49238;DHT22;35069;47.906;1.892;2024-02-23T07:38:34;6.30;99.90
49238;DHT22;35069;47.906;1.892;2024-02-23T07:40:59;6.30;99.90
49238;DHT22;35069;47.906;1.892;2024-02-23T07:43:25;6.30;99.90
49238;DHT22;35069;47.906;1.892;2024-02-23T07:45:51;6.30;99.90
49238;DHT22;35069;47.906;1.892;2024-02-23T07:48:17;6.40;99.90
49238;DHT22;35069;47.906;1.892;2024-02-23T07:50:42;6.30;99.90
49238;DHT22;35069;47.906;1.892;2024-02-23T07:53:08;6.40;99.90
49238;DHT22;35069;47.906;1.892;2024-02-23T07:55:33;6.70;99.90
49238;DHT22;35069;47.906;1.892;2024-02-23T07:57:59;7.30;99.90
49238;DHT22;35069;47.906;1.892;2024-02-23T08:00:27;7.70;99.90
49238;DHT22;35069;47.906;1.892;2024-02-23T08:02:53;7.70;99.90
49238;DHT22;35069;47.906;1.892;2024-02-23T08:05:22;7.50;99.90
49238;DHT22;35069;47.906;1.892;2024-02-23T08:07:51;7.30;99.90
49238;DHT22;35069;47.906;1.892;2024-02-23T08:10:20;7.10;99.90
49238;DHT22;35069;47.906;1.892;2024-02-23T08:12:46;6.90;99.90
49238;DHT22;35069;47.906;1.892;2024-02-23T08:15:12;6.90;99.90
49238;DHT22;35069;47.906;1.892;2024-02-23T08:17:38;6.80;99.90
49238;DHT22;35069;47.906;1.892;2024-02-23T08:20:04;7.00;99.90
49238;DHT22;35069;47.906;1.892;2024-02-23T08:22:33;7.10;99.90
49238;DHT22;35069;47.906;1.892;2024-02-23T08:24:58;7.20;99.90
49238;DHT22;35069;47.906;1.892;2024-02-23T08:27:42;7.20;99.90
49238;DHT22;35069;47.906;1.892;2024-02-23T08:30:13;7.20;99.90
49238;DHT22;35069;47.906;1.892;2024-02-23T08:32:56;7.40;99.90
49238;DHT22;35069;47.906;1.892;2024-02-23T08:35:28;7.50;99.90
49238;DHT22;35069;47.906;1.892;2024-02-23T08:38:20;7.70;99.90
49238;DHT22;35069;47.906;1.892;2024-02-23T08:40:48;8.00;99.90
49238;DHT22;35069;47.906;1.892;2024-02-23T08:57:06;8.10;99.90
49238;DHT22;35069;47.906;1.892;2024-02-23T09:00:08;8.10;99.90
49238;DHT22;35069;47.906;1.892;2024-02-23T09:02:46;8.10;99.90
49238;DHT22;35069;47.906;1.892;2024-02-23T09:05:15;8.00;99.90
49238;DHT22;35069;47.906;1.892;2024-02-23T09:07:40;8.20;99.90
49238;DHT22;35069;47.906;1.892;2024-02-23T09:10:06;8.30;99.90
49238;DHT22;35069;47.906;1.892;2024-02-23T09:12:32;8.30;99.90
49238;DHT22;35069;47.906;1.892;2024-02-23T09:14:57;8.30;99.90
49238;DHT22;35069;47.906;1.892;2024-02-23T09:17:23;8.20;99.90
49238;DHT22;35069;47.906;1.892;2024-02-23T09:19:49;8.20;99.90
49238;DHT22;35069;47.906;1.892;2024-02-23T09:22:14;8.30;99.90
49238;DHT22;35069;47.906;1.892;2024-02-23T09:24:41;8.30;99.90
49238;DHT22;35069;47.906;1.892;2024-02-23T09:27:07;8.30;99.90
49238;DHT22;35069;47.906;1.892;2024-02-23T09:29:33;8.50;99.90
49238;DHT22;35069;47.906;1.892;2024-02-23T09:31:58;8.50;99.90
49238;DHT22;35069;47.906;1.892;2024-02-23T09:34:25;8.60;99.90
49238;DHT22;35069;47.906;1.892;2024-02-23T09:36:51;8.60;99.90
49238;DHT22;35069;47.906;1.892;2024-02-23T09:39:16;8.50;99.90
49238;DHT22;35069;47.906;1.892;2024-02-23T09:41:43;8.60;99.90
49238;DHT22;35069;47.906;1.892;2024-02-23T09:44:09;8.80;99.90
49238;DHT22;35069;47.906;1.892;2024-02-23T09:46:36;8.90;99.90
49238;DHT22;35069;47.906;1.892;2024-02-23T09:49:03;8.90;99.90
49238;DHT22;35069;47.906;1.892;2024-02-23T09:51:29;8.80;99.90
49238;DHT22;35069;47.906;1.892;2024-02-23T09:53:57;8.60;99.90
49238;DHT22;35069;47.906;1.892;2024-02-23T09:56:26;8.40;99.90
49238;DHT22;35069;47.906;1.892;2024-02-23T09:58:53;8.40;99.90
49238;DHT22;35069;47.906;1.892;2024-02-23T10:01:25;8.30;99.90
49238;DHT22;35069;47.906;1.892;2024-02-23T10:03:54;8.20;99.90
49238;DHT22;35069;47.906;1.892;2024-02-23T10:06:21;8.10;99.90
49238;DHT22;35069;47.906;1.892;2024-02-23T10:15:24;7.80;99.90
49238;DHT22;35069;47.906;1.892;2024-02-23T10:17:50;8.10;99.90
49238;DHT22;35069;47.906;1.892;2024-02-23T10:20:31;8.30;99.90
49238;DHT22;35069;47.906;1.892;2024-02-23T10:23:44;8.30;99.90
49238;DHT22;35069;47.906;1.892;2024-02-23T10:30:03;8.20;99.90
49238;DHT22;35069;47.906;1.892;2024-02-23T10:32:57;8.30;99.90
49238;DHT22;35069;47.906;1.892;2024-02-23T10:35:25;8.40;99.90
49238;DHT22;35069;47.906;1.892;2024-02-23T10:37:56;8.60;99.90
49238;DHT22;35069;47.906;1.892;2024-02-23T10:40:25;8.60;99.90
49238;DHT22;35069;47.906;1.892;2024-02-23T10:43:09;8.40;99.90
49238;DHT22;35069;47.906;1.892;2024-02-23T10:45:38;8.30;99.90
49238;DHT22;35069;47.906;1.892;2024-02-23T10:48:08;8.30;99.90
49238;DHT22;35069;47.906;1.892;2024-02-23T10:50:38;8.20;99.90
49238;DHT22;35069;47.906;1.892;2024-02-23T10:53:07;8.20;99.90
49238;DHT22;35069;47.906;1.892;2024-02-23T10:55:38;8.50;99.90
49238;DHT22;35069;47.906;1.892;2024-02-23T10:58:10;8.50;99.90
49238;DHT22;35069;47.906;1.892;2024-02-23T11:00:39;8.50;99.90
49238;DHT22;35069;47.906;1.892;2024-02-23T11:03:07;8.50;99.90
49238;DHT22;35069;47.906;1.892;2024-02-23T11:05:49;8.60;99.90
49238;DHT22;35069;47.906;1.892;2024-02-23T11:08:39;8.70;99.90
49238;DHT22;35069;47.906;1.892;2024-02-23T11:11:13;9.40;99.90
49238;DHT22;35069;47.906;1.892;2024-02-23T11:13:48;9.70;99.90
49238;DHT22;35069;47.906;1.892;2024-02-23T11:16:22;9.60;99.90
49238;DHT22;35069;47.906;1.892;2024-02-23T11:19:08;9.40;99.90
49238;DHT22;35069;47.906;1.892;2024-02-23T11:21:41;9.30;99.90
49238;DHT22;35069;47.906;1.892;2024-02-23T11:24:07;9.40;99.90
49238;DHT22;35069;47.906;1.892;2024-02-23T11:26:33;10.30;99.90
49238;DHT22;35069;47.906;1.892;2024-02-23T11:29:10;11.10;99.90
49238;DHT22;35069;47.906;1.892;2024-02-23T11:31:36;11.20;99.90
49238;DHT22;35069;47.906;1.892;2024-02-23T11:34:12;11.20;99.90
49238;DHT22;35069;47.906;1.892;2024-02-23T11:36:38;11.20;99.90
49238;DHT22;35069;47.906;1.892;2024-02-23T11:39:04;11.20;99.90
49238;DHT22;35069;47.906;1.892;2024-02-23T11:41:31;11.40;99.90
49238;DHT22;35069;47.906;1.892;2024-02-23T11:43:57;11.30;99.90
49238;DHT22;35069;47.906;1.892;2024-02-23T11:46:25;10.80;99.90
49238;DHT22;35069;47.906;1.892;2024-02-23T11:48:51;10.80;99.90
49238;DHT22;35069;47.906;1.892;2024-02-23T11:51:20;11.20;99.90
49238;DHT22;35069;47.906;1.892;2024-02-23T11:53:46;12.10;99.90
49238;DHT22;35069;47.906;1.892;2024-02-23T11:56:13;12.00;99.90
49238;DHT22;35069;47.906;1.892;2024-02-23T11:58:40;11.60;99.90
49238;DHT22;35069;47.906;1.892;2024-02-23T12:01:05;11.20;99.90
49238;DHT22;35069;47.906;1.892;2024-02-23T12:03:32;10.90;99.90
49238;DHT22;35069;47.906;1.892;2024-02-23T12:06:01;10.70;99.90
49238;DHT22;35069;47.906;1.892;2024-02-23T12:08:29;11.00;99.90
49238;DHT22;35069;47.906;1.892;2024-02-23T12:10:55;11.90;99.90
49238;DHT22;35069;47.906;1.892;2024-02-23T12:13:22;12.80;99.90
49238;DHT22;35069;47.906;1.892;2024-02-23T12:15:48;13.30;99.90
49238;DHT22;35069;47.906;1.892;2024-02-23T12:18:14;14.50;99.90
49238;DHT22;35069;47.906;1.892;2024-02-23T12:20:40;15.10;99.90
49238;DHT22;35069;47.906;1.892;2024-02-23T12:23:06;15.20;99.90
49238;DHT22;35069;47.906;1.892;2024-02-23T12:25:33;15.50;99.90
49238;DHT22;35069;47.906;1.892;2024-02-23T12:27:59;14.10;98.60
49238;DHT22;35069;47.906;1.892;2024-02-23T12:30:26;12.90;98.70
49238;DHT22;35069;47.906;1.892;2024-02-23T12:33:04;13.20;99.90
49238;DHT22;35069;47.906;1.892;2024-02-23T12:35:29;12.90;97.20
49238;DHT22;35069;47.906;1.892;2024-02-23T12:37:55;12.10;99.20
49238;DHT22;35069;47.906;1.892;2024-02-23T12:40:21;11.40;99.10
49238;DHT22;35069;47.906;1.892;2024-02-23T12:42:46;11.40;99.80
49238;DHT22;35069;47.906;1.892;2024-02-23T12:45:14;11.50;99.90
49238;DHT22;35069;47.906;1.892;2024-02-23T12:47:39;11.90;99.90
49238;DHT22;35069;47.906;1.892;2024-02-23T12:50:06;12.40;99.90
49238;DHT22;35069;47.906;1.892;2024-02-23T12:52:33;12.90;99.90
49238;DHT22;35069;47.906;1.892;2024-02-23T12:54:59;13.00;99.90
49238;DHT22;35069;47.906;1.892;2024-02-23T12:57:25;12.50;99.40
49238;DHT22;35069;47.906;1.892;2024-02-23T12:59:50;12.00;98.70
49238;DHT22;35069;47.906;1.892;2024-02-23T13:02:16;11.40;98.20
49238;DHT22;35069;47.906;1.892;2024-02-23T13:04:42;11.20;98.50
49238;DHT22;35069;47.906;1.892;2024-02-23T13:07:11;11.30;98.90
49238;DHT22;35069;47.906;1.892;2024-02-23T13:09:37;11.10;98.60
49238;DHT22;35069;47.906;1.892;2024-02-23T13:12:08;10.80;98.30
49238;DHT22;35069;47.906;1.892;2024-02-23T13:14:38;10.70;98.30
49238;DHT22;35069;47.906;1.892;2024-02-23T13:17:06;10.60;98.70
49238;DHT22;35069;47.906;1.892;2024-02-23T13:19:32;10.50;99.00
49238;DHT22;35069;47.906;1.892;2024-02-23T13:21:58;10.30;99.10
49238;DHT22;35069;47.906;1.892;2024-02-23T13:24:26;10.10;99.10
49238;DHT22;35069;47.906;1.892;2024-02-23T13:26:52;9.70;99.30
49238;DHT22;35069;47.906;1.892;2024-02-23T13:29:17;9.60;99.90
49238;DHT22;35069;47.906;1.892;2024-02-23T13:31:43;9.70;99.90
49238;DHT22;35069;47.906;1.892;2024-02-23T13:34:13;9.90;99.90
49238;DHT22;35069;47.906;1.892;2024-02-23T13:36:42;9.80;99.90
49238;DHT22;35069;47.906;1.892;2024-02-23T13:39:10;9.90;99.90
49238;DHT22;35069;47.906;1.892;2024-02-23T13:41:39;9.90;99.90
49238;DHT22;35069;47.906;1.892;2024-02-23T13:44:05;9.90;99.90
49238;DHT22;35069;47.906;1.892;2024-02-23T13:46:31;9.80;99.90
49238;DHT22;35069;47.906;1.892;2024-02-23T13:49:06;9.70;99.90
49238;DHT22;35069;47.906;1.892;2024-02-23T13:51:33;9.70;99.90
49238;DHT22;35069;47.906;1.892;2024-02-23T13:53:59;9.80;99.90
49238;DHT22;35069;47.906;1.892;2024-02-23T13:56:25;9.90;99.90
49238;DHT22;35069;47.906;1.892;2024-02-23T13:58:50;10.00;99.90
49238;DHT22;35069;47.906;1.892;2024-02-23T14:01:16;10.00;99.90
49238;DHT22;35069;47.906;1.892;2024-02-23T14:03:42;9.80;99.90
49238;DHT22;35069;47.906;1.892;2024-02-23T14:06:08;9.70;99.90
49238;DHT22;35069;47.906;1.892;2024-02-23T14:08:35;9.60;99.90
49238;DHT22;35069;47.906;1.892;2024-02-23T14:11:02;9.70;99.90
49238;DHT22;35069;47.906;1.892;2024-02-23T14:13:33;9.80;99.90
49238;DHT22;35069;47.906;1.892;2024-02-23T14:15:58;9.80;99.90
49238;DHT22;35069;47.906;1.892;2024-02-23T14:18:24;9.60;99.90
49238;DHT22;35069;47.906;1.892;2024-02-23T14:20:50;9.60;99.90
49238;DHT22;35069;47.906;1.892;2024-02-23T14:23:18;9.70;99.90
49238;DHT22;35069;47.906;1.892;2024-02-23T14:25:43;9.70;99.90
49238;DHT22;35069;47.906;1.892;2024-02-23T14:28:09;9.70;99.90
49238;DHT22;35069;47.906;1.892;2024-02-23T14:30:35;9.70;99.90
49238;DHT22;35069;47.906;1.892;2024-02-23T14:33:01;9.60;99.90
49238;DHT22;35069;47.906;1.892;2024-02-23T14:35:27;9.50;99.90
49238;DHT22;35069;47.906;1.892;2024-02-23T14:37:52;9.50;99.90
49238;DHT22;35069;47.906;1.892;2024-02-23T14:40:18;9.40;99.90
49238;DHT22;35069;47.906;1.892;2024-02-23T14:42:43;9.20;99.90
49238;DHT22;35069;47.906;1.892;2024-02-23T14:45:09;9.10;99.90
49238;DHT22;35069;47.906;1.892;2024-02-23T14:47:37;9.10;99.90
49238;DHT22;35069;47.906;1.892;2024-02-23T14:50:03;9.00;99.90
49238;DHT22;35069;47.906;1.892;2024-02-23T14:52:29;9.10;99.90
49238;DHT22;35069;47.906;1.892;2024-02-23T14:54:54;9.20;99.90
49238;DHT22;35069;47.906;1.892;2024-02-23T14:57:20;9.20;99.90
49238;DHT22;35069;47.906;1.892;2024-02-23T14:59:47;9.20;99.90
49238;DHT22;35069;47.906;1.892;2024-02-23T15:02:20;9.20;99.90
49238;DHT22;35069;47.906;1.892;2024-02-23T15:04:46;9.10;99.90
49238;DHT22;35069;47.906;1.892;2024-02-23T15:07:11;9.00;99.90
49238;DHT22;35069;47.906;1.892;2024-02-23T15:09:37;8.90;99.90
49238;DHT22;35069;47.906;1.892;2024-02-23T15:12:03;8.90;99.90
49238;DHT22;35069;47.906;1.892;2024-02-23T15:14:29;9.00;99.90
49238;DHT22;35069;47.906;1.892;2024-02-23T15:16:54;9.10;99.90
49238;DHT22;35069;47.906;1.892;2024-02-23T15:19:20;9.10;99.90
49238;DHT22;35069;47.906;1.892;2024-02-23T15:21:46;9.00;99.90
49238;DHT22;35069;47.906;1.892;2024-02-23T15:24:13;9.00;99.90
49238;DHT22;35069;47.906;1.892;2024-02-23T15:26:38;8.90;99.90
49238;DHT22;35069;47.906;1.892;2024-02-23T15:29:04;8.90;99.90
49238;DHT22;35069;47.906;1.892;2024-02-23T15:31:30;8.80;99.90
49238;DHT22;35069;47.906;1.892;2024-02-23T15:33:55;8.80;99.90
49238;DHT22;35069;47.906;1.892;2024-02-23T15:36:23;8.70;99.90
49238;DHT22;35069;47.906;1.892;2024-02-23T15:38:49;8.70;99.90
49238;DHT22;35069;47.906;1.892;2024-02-23T15:41:14;8.70;99.90
49238;DHT22;35069;47.906;1.892;2024-02-23T15:43:40;8.70;99.90
49238;DHT22;35069;47.906;1.892;2024-02-23T15:46:05;8.70;99.90
49238;DHT22;35069;47.906;1.892;2024-02-23T15:48:31;8.60;99.90
49238;DHT22;35069;47.906;1.892;2024-02-23T15:50:57;8.60;99.90
49238;DHT22;35069;47.906;1.892;2024-02-23T15:53:22;8.60;99.90
49238;DHT22;35069;47.906;1.892;2024-02-23T15:55:48;8.50;99.90
49238;DHT22;35069;47.906;1.892;2024-02-23T15:58:14;8.50;99.90
49238;DHT22;35069;47.906;1.892;2024-02-23T16:00:45;8.50;99.90
49238;DHT22;35069;47.906;1.892;2024-02-23T16:03:10;8.50;99.90
49238;DHT22;35069;47.906;1.892;2024-02-23T16:05:36;8.50;99.90
49238;DHT22;35069;47.906;1.892;2024-02-23T16:08:02;8.50;99.90
49238;DHT22;35069;47.906;1.892;2024-02-23T16:10:29;8.40;99.90
49238;DHT22;35069;47.906;1.892;2024-02-23T16:12:55;8.40;99.90